createdAt,value
2018-06-28T00:00:44.309Z,73.10
2018-06-28T00:03:20.445Z,73.20
2018-06-28T00:05:56.534Z,73.30
2018-06-28T00:11:08.825Z,73.80
2018-06-28T00:13:44.845Z,73.50
2018-06-28T00:16:20.960Z,74.00
2018-06-28T00:18:57.082Z,74.10
2018-06-28T00:21:33.095Z,74.00
2018-06-28T00:24:09.254Z,74.40
2018-06-28T00:26:45.789Z,74.30
2018-06-28T00:29:21.933Z,74.70
2018-06-28T00:31:58.150Z,75.10
2018-06-28T00:34:34.267Z,75.70
2018-06-28T00:37:10.301Z,75.60
2018-06-28T00:39:46.509Z,75.30
2018-06-28T00:44:58.829Z,75.00
2018-06-28T00:47:34.918Z,74.90
2018-06-28T00:50:11.118Z,75.00
2018-06-28T00:52:47.184Z,76.10
2018-06-28T00:55:23.382Z,75.40
2018-06-28T00:57:59.490Z,75.70
2018-06-28T01:00:35.591Z,75.50
2018-06-28T01:03:11.646Z,75.60
2018-06-28T01:05:47.734Z,75.40
2018-06-28T01:08:24.863Z,75.30
2018-06-28T01:11:00.960Z,75.50
2018-06-28T01:13:37.147Z,75.50
2018-06-28T01:16:13.144Z,75.50
2018-06-28T01:18:49.300Z,75.50
2018-06-28T01:21:25.326Z,75.90
2018-06-28T01:24:01.456Z,76.10
2018-06-28T01:26:37.393Z,76.30
2018-06-28T01:29:13.379Z,76.50
2018-06-28T01:34:25.059Z,76.60
2018-06-28T01:37:00.988Z,76.70
2018-06-28T01:39:36.998Z,76.50
2018-06-28T01:43:31.738Z,76.60
2018-06-28T01:46:07.849Z,76.60
2018-06-28T01:48:44.062Z,76.70
2018-06-28T01:51:20.122Z,76.70
2018-06-28T01:53:56.275Z,76.80
2018-06-28T01:56:32.538Z,77.30
2018-06-28T01:59:08.541Z,77.20
2018-06-28T02:01:44.726Z,77.40
2018-06-28T02:04:21.315Z,77.40
2018-06-28T02:06:57.408Z,77.50
2018-06-28T02:09:33.546Z,77.90
2018-06-28T02:12:09.605Z,77.70
2018-06-28T02:14:45.874Z,77.60
2018-06-28T02:17:21.827Z,77.80
2018-06-28T02:19:57.781Z,77.70
2018-06-28T02:22:33.889Z,77.90
2018-06-28T02:25:09.884Z,78.10
2018-06-28T02:27:45.941Z,78.00
2018-06-28T02:30:21.971Z,77.80
2018-06-28T02:32:58.025Z,78.70
2018-06-28T02:35:34.029Z,78.70
2018-06-28T02:38:09.990Z,78.60
2018-06-28T02:40:46.237Z,78.70
2018-06-28T02:43:22.346Z,78.80
2018-06-28T02:45:58.368Z,78.70
2018-06-28T02:48:34.575Z,78.50
2018-06-28T02:51:10.695Z,78.50
2018-06-28T02:53:46.661Z,78.20
2018-06-28T02:56:22.782Z,78.40
2018-06-28T02:58:59.146Z,78.50
2018-06-28T03:01:35.156Z,78.20
2018-06-28T03:04:11.215Z,78.40
2018-06-28T03:06:47.209Z,78.40
2018-06-28T03:09:23.269Z,78.60
2018-06-28T03:11:59.775Z,78.70
2018-06-28T03:14:36.140Z,79.10
2018-06-28T03:17:12.473Z,78.90
2018-06-28T03:19:48.726Z,79.50
2018-06-28T03:22:25.453Z,79.60
2018-06-28T03:25:01.504Z,79.60
2018-06-28T03:27:37.584Z,79.80
2018-06-28T03:30:13.822Z,79.70
2018-06-28T03:32:50.014Z,79.80
2018-06-28T03:35:26.392Z,80.00
2018-06-28T03:38:02.641Z,80.10
2018-06-28T03:40:38.586Z,80.30
2018-06-28T03:43:14.664Z,80.30
2018-06-28T03:45:50.656Z,80.10
2018-06-28T03:51:02.241Z,79.90
2018-06-28T03:53:38.245Z,79.80
2018-06-28T03:56:14.420Z,79.90
2018-06-28T03:58:50.609Z,79.60
2018-06-28T04:01:26.770Z,80.00
2018-06-28T04:04:02.758Z,79.90
2018-06-28T04:06:38.962Z,80.40
2018-06-28T04:09:15.087Z,79.30
2018-06-28T04:11:51.164Z,79.00
2018-06-28T04:14:27.174Z,79.00
2018-06-28T04:17:03.435Z,78.50
2018-06-28T04:19:39.647Z,78.90
2018-06-28T04:22:24.801Z,80.10
2018-06-28T04:25:00.989Z,79.50
2018-06-28T04:27:37.016Z,78.10
2018-06-28T04:30:12.958Z,78.70
2018-06-28T04:32:48.988Z,78.30
2018-06-28T04:35:25.178Z,77.80
2018-06-28T04:38:01.201Z,77.40
2018-06-28T04:40:37.326Z,77.70
2018-06-28T04:43:13.504Z,77.40
2018-06-28T04:45:49.660Z,77.70
2018-06-28T04:48:25.846Z,78.00
2018-06-28T04:51:02.219Z,78.20
2018-06-28T04:53:38.513Z,77.90
2018-06-28T04:56:14.729Z,77.30
2018-06-28T04:58:50.753Z,78.50
2018-06-28T05:04:02.454Z,76.30
2018-06-28T05:09:14.413Z,77.10
2018-06-28T05:11:50.546Z,75.80
2018-06-28T05:14:26.729Z,75.70
2018-06-28T05:17:02.960Z,74.10
2018-06-28T05:19:39.007Z,73.50
2018-06-28T05:22:15.327Z,72.70
2018-06-28T05:24:51.695Z,71.60
2018-06-28T05:27:27.890Z,72.60
2018-06-28T05:30:04.027Z,72.20
2018-06-28T05:32:40.155Z,71.10
2018-06-28T05:35:16.858Z,72.00
2018-06-28T05:37:52.899Z,72.30
2018-06-28T05:40:29.257Z,71.30
2018-06-28T05:43:05.358Z,70.60
2018-06-28T05:45:41.518Z,70.10
2018-06-28T05:48:17.548Z,70.30
2018-06-28T05:50:53.738Z,68.90
2018-06-28T05:53:29.894Z,68.90
2018-06-28T05:56:06.408Z,69.80
2018-06-28T05:58:42.506Z,71.30
2018-06-28T06:01:18.744Z,70.30
2018-06-28T06:03:55.626Z,68.80
2018-06-28T06:06:31.713Z,68.60
2018-06-28T06:09:09.615Z,67.50
2018-06-28T06:11:45.686Z,67.20
2018-06-28T06:14:21.762Z,67.00
2018-06-28T06:16:57.822Z,65.90
2018-06-28T06:19:34.069Z,63.50
2018-06-28T06:22:10.117Z,63.80
2018-06-28T06:24:46.317Z,63.90
2018-06-28T06:27:22.489Z,63.70
2018-06-28T06:29:58.531Z,62.20
2018-06-28T06:32:34.695Z,63.40
2018-06-28T06:35:10.928Z,63.60
2018-06-28T06:37:47.081Z,62.00
2018-06-28T06:40:23.102Z,60.90
2018-06-28T06:42:59.090Z,59.80
2018-06-28T06:45:35.280Z,58.80
2018-06-28T06:48:11.306Z,58.80
2018-06-28T06:50:47.341Z,57.40
2018-06-28T06:53:23.361Z,58.20
2018-06-28T06:56:00.346Z,58.10
2018-06-28T06:58:36.388Z,58.40
2018-06-28T07:01:12.621Z,57.70
2018-06-28T07:03:48.836Z,57.20
2018-06-28T07:06:25.616Z,57.70
2018-06-28T07:09:01.666Z,57.50
2018-06-28T07:11:37.842Z,57.30
2018-06-28T07:14:13.853Z,57.10
2018-06-28T07:16:49.991Z,55.70
2018-06-28T07:19:26.220Z,56.10
2018-06-28T07:22:02.446Z,55.30
2018-06-28T07:24:38.444Z,55.10
2018-06-28T07:27:14.572Z,54.70
2018-06-28T07:29:50.469Z,53.30
2018-06-28T07:32:26.574Z,53.30
2018-06-28T07:35:02.884Z,54.40
2018-06-28T07:37:39.011Z,54.00
2018-06-28T07:40:15.304Z,53.80
2018-06-28T07:42:51.677Z,52.10
2018-06-28T07:45:27.710Z,53.60
2018-06-28T07:48:04.022Z,51.40
2018-06-28T07:50:40.454Z,52.30
2018-06-28T07:53:16.696Z,52.60
2018-06-28T07:58:28.730Z,52.30
2018-06-28T08:01:04.910Z,49.70
2018-06-28T08:03:40.998Z,49.20
2018-06-28T08:06:17.081Z,52.10
2018-06-28T08:08:53.098Z,50.50
2018-06-28T08:11:29.072Z,49.60
2018-06-28T08:14:05.447Z,50.20
2018-06-28T08:16:41.499Z,50.20
2018-06-28T08:19:17.716Z,49.60
2018-06-28T08:21:53.893Z,48.70
2018-06-28T08:24:30.136Z,48.00
2018-06-28T08:27:06.770Z,47.50
2018-06-28T08:29:42.939Z,48.30
2018-06-28T08:32:18.988Z,48.10
2018-06-28T08:34:56.201Z,45.70
2018-06-28T08:37:32.327Z,47.40
2018-06-28T08:40:08.538Z,46.20
2018-06-28T08:42:44.743Z,46.40
2018-06-28T08:45:20.759Z,48.10
2018-06-28T08:47:56.789Z,46.70
2018-06-28T08:50:32.837Z,46.00
2018-06-28T08:53:09.038Z,45.00
2018-06-28T08:55:45.137Z,44.90
2018-06-28T08:58:21.210Z,44.90
2018-06-28T09:00:57.418Z,44.30
2018-06-28T09:03:33.692Z,42.70
2018-06-28T09:06:09.714Z,42.50
2018-06-28T09:08:45.828Z,42.90
2018-06-28T09:11:21.984Z,42.90
2018-06-28T09:13:58.241Z,43.30
2018-06-28T09:16:34.350Z,42.00
2018-06-28T09:19:10.513Z,41.80
2018-06-28T09:21:46.497Z,41.40
2018-06-28T09:24:22.711Z,41.60
2018-06-28T09:26:58.948Z,40.90
2018-06-28T09:29:34.938Z,41.40
2018-06-28T09:32:11.189Z,39.00
2018-06-28T09:34:47.296Z,40.20
2018-06-28T09:37:23.514Z,39.70
2018-06-28T09:39:59.558Z,40.50
2018-06-28T09:42:35.979Z,39.70
2018-06-28T09:45:12.008Z,38.90
2018-06-28T09:47:48.359Z,38.40
2018-06-28T09:50:24.361Z,40.00
2018-06-28T09:53:00.364Z,37.10
2018-06-28T09:55:36.707Z,37.60
2018-06-28T09:58:12.876Z,39.70
2018-06-28T10:00:49.085Z,37.70
2018-06-28T10:03:25.984Z,38.70
2018-06-28T10:06:02.202Z,38.40
2018-06-28T10:08:38.349Z,37.50
2018-06-28T10:11:14.847Z,38.90
2018-06-28T10:13:50.931Z,36.80
2018-06-28T10:16:27.229Z,36.60
2018-06-28T10:19:03.393Z,38.40
2018-06-28T10:21:39.654Z,38.60
2018-06-28T10:24:15.713Z,38.30
2018-06-28T10:26:51.902Z,36.70
2018-06-28T10:29:28.122Z,37.40
2018-06-28T10:32:04.289Z,35.70
2018-06-28T10:34:40.454Z,37.20
2018-06-28T10:37:16.647Z,37.10
2018-06-28T10:39:52.813Z,36.30
2018-06-28T10:42:29.334Z,35.30
2018-06-28T10:45:05.653Z,36.90
2018-06-28T10:47:35.878Z,37.20
2018-06-28T10:50:06.169Z,37.80
2018-06-28T10:52:36.093Z,37.50
2018-06-28T10:55:06.030Z,36.60
2018-06-28T10:57:35.976Z,36.50
2018-06-28T11:00:06.165Z,36.90
2018-06-28T11:02:36.349Z,37.30
2018-06-28T11:05:06.604Z,36.60
2018-06-28T11:07:36.513Z,35.70
2018-06-28T11:10:07.037Z,35.20
2018-06-28T11:12:36.989Z,35.90
2018-06-28T11:15:07.251Z,34.60
2018-06-28T11:17:37.210Z,35.20
2018-06-28T11:20:07.193Z,35.00
2018-06-28T11:22:37.102Z,35.00
2018-06-28T11:25:07.085Z,35.00
2018-06-28T11:27:36.961Z,35.00
2018-06-28T11:30:06.878Z,34.30
2018-06-28T11:32:36.866Z,35.40
2018-06-28T11:35:07.001Z,33.60
2018-06-28T11:37:36.948Z,34.10
2018-06-28T11:40:06.976Z,35.90
2018-06-28T11:42:36.941Z,36.30
2018-06-28T11:45:06.953Z,34.40
2018-06-28T11:47:41.044Z,34.00
2018-06-28T11:50:11.225Z,33.50
2018-06-28T11:52:41.140Z,35.10
2018-06-28T11:55:11.093Z,34.80
2018-06-28T11:57:41.133Z,34.50
2018-06-28T12:00:11.050Z,33.30
2018-06-28T12:02:40.962Z,34.00
2018-06-28T12:05:10.909Z,34.60
2018-06-28T12:07:40.806Z,35.00
2018-06-28T12:10:10.840Z,34.60
2018-06-28T12:12:40.745Z,36.30
2018-06-28T12:15:10.657Z,37.20
2018-06-28T12:17:40.893Z,37.50
2018-06-28T12:20:10.837Z,37.50
2018-06-28T12:22:40.761Z,36.90
2018-06-28T12:25:10.764Z,36.40
2018-06-28T12:27:40.705Z,38.40
2018-06-28T12:30:10.611Z,37.60
2018-06-28T12:32:40.563Z,38.60
2018-06-28T12:35:10.654Z,37.30
2018-06-28T12:37:40.789Z,38.70
2018-06-28T12:40:17.099Z,38.10
2018-06-28T12:42:53.125Z,36.30
2018-06-28T12:45:29.251Z,36.90
2018-06-28T12:48:10.176Z,37.30
2018-06-28T12:50:46.330Z,36.40
2018-06-28T12:53:16.281Z,39.20
2018-06-28T12:56:21.546Z,37.10
2018-06-28T12:58:53.137Z,39.30
2018-06-28T13:01:24.178Z,40.10
2018-06-28T13:03:54.493Z,39.70
2018-06-28T13:06:24.414Z,39.50
2018-06-28T13:08:55.010Z,39.00
2018-06-28T13:11:25.285Z,38.20
2018-06-28T13:13:56.483Z,40.40
2018-06-28T13:16:27.390Z,40.00
2018-06-28T13:18:57.385Z,36.90
2018-06-28T13:21:27.314Z,38.40
2018-06-28T13:23:57.207Z,38.60
2018-06-28T13:26:27.151Z,39.30
2018-06-28T13:29:14.950Z,37.10
2018-06-28T13:31:44.885Z,37.00
2018-06-28T13:34:14.820Z,37.70
2018-06-28T13:36:44.823Z,38.30
2018-06-28T13:39:21.123Z,40.50
2018-06-28T13:41:57.323Z,43.30
2018-06-28T13:44:33.502Z,43.20
2018-06-28T13:47:09.608Z,43.60
2018-06-28T13:49:45.864Z,43.60
2018-06-28T13:52:21.993Z,43.70
2018-06-28T13:54:58.133Z,44.00
2018-06-28T13:57:34.451Z,43.00
2018-06-28T14:00:10.625Z,44.20
2018-06-28T14:02:47.056Z,45.50
2018-06-28T14:05:23.401Z,44.70
2018-06-28T14:07:59.872Z,44.40
2018-06-28T14:10:35.862Z,45.50
2018-06-28T14:13:12.028Z,47.10
2018-06-28T14:15:49.193Z,47.00
2018-06-28T14:18:25.243Z,45.20
2018-06-28T14:21:01.316Z,46.30
2018-06-28T14:23:37.375Z,45.70
2018-06-28T14:26:13.430Z,46.50
2018-06-28T14:28:49.447Z,46.10
2018-06-28T14:31:25.636Z,43.90
2018-06-28T14:34:01.810Z,46.30
2018-06-28T14:36:44.045Z,44.20
2018-06-28T14:39:20.275Z,44.30
2018-06-28T14:41:56.308Z,45.10
2018-06-28T14:44:32.538Z,46.40
2018-06-28T14:47:08.520Z,45.20
2018-06-28T14:49:44.637Z,45.60
2018-06-28T14:52:20.679Z,45.70
2018-06-28T14:54:56.746Z,45.50
2018-06-28T14:57:32.818Z,46.40
2018-06-28T15:00:09.074Z,44.10
2018-06-28T15:02:45.202Z,45.40
2018-06-28T15:05:21.257Z,44.70
2018-06-28T15:07:57.264Z,44.10
2018-06-28T15:10:33.708Z,44.70
2018-06-28T15:13:09.900Z,45.90
2018-06-28T15:15:46.091Z,45.70
2018-06-28T15:18:22.334Z,46.50
2018-06-28T15:20:58.383Z,45.50
2018-06-28T15:23:34.899Z,45.20
2018-06-28T15:26:11.122Z,46.00
2018-06-28T15:28:47.260Z,45.20
2018-06-28T15:31:23.418Z,44.30
2018-06-28T15:33:59.982Z,43.60
2018-06-28T15:36:36.085Z,44.50
2018-06-28T15:39:12.158Z,44.20
2018-06-28T15:41:48.321Z,44.50
2018-06-28T15:44:25.518Z,43.40
2018-06-28T15:46:55.791Z,45.00
2018-06-28T15:49:25.787Z,45.10
2018-06-28T15:51:55.756Z,45.70
2018-06-28T15:54:32.955Z,46.30
2018-06-28T15:57:02.945Z,44.30
2018-06-28T15:59:32.935Z,46.00
2018-06-28T16:02:02.964Z,45.10
2018-06-28T16:04:33.206Z,44.20
2018-06-28T16:07:03.311Z,46.50
2018-06-28T16:09:33.206Z,45.90
2018-06-28T16:12:03.154Z,46.00
2018-06-28T16:14:33.132Z,46.90
2018-06-28T16:17:03.072Z,45.80
2018-06-28T16:19:32.967Z,46.90
2018-06-28T16:22:03.132Z,46.20
2018-06-28T16:24:33.123Z,45.90
2018-06-28T16:27:03.134Z,45.70
2018-06-28T16:29:33.088Z,44.30
2018-06-28T16:32:03.124Z,45.40
2018-06-28T16:34:33.080Z,45.80
2018-06-28T16:37:03.104Z,45.90
2018-06-28T16:39:33.165Z,48.00
2018-06-28T16:44:32.887Z,47.40
2018-06-28T16:47:03.028Z,47.20
2018-06-28T16:49:39.202Z,46.90
2018-06-28T16:52:15.306Z,46.00
2018-06-28T16:54:51.310Z,46.40
2018-06-28T16:57:27.532Z,46.40
2018-06-28T17:00:03.598Z,45.80
2018-06-28T17:02:39.802Z,45.90
2018-06-28T17:05:16.033Z,45.10
2018-06-28T17:07:52.541Z,45.80
2018-06-28T17:10:22.428Z,45.60
2018-06-28T17:12:58.502Z,45.40
2018-06-28T17:15:34.881Z,45.30
2018-06-28T17:18:04.902Z,47.50
2018-06-28T17:20:35.112Z,45.90
2018-06-28T17:23:05.031Z,45.60
2018-06-28T17:25:35.031Z,45.40
2018-06-28T17:28:06.221Z,46.50
2018-06-28T17:33:06.108Z,48.60
2018-06-28T17:35:36.165Z,47.60
2018-06-28T17:38:06.097Z,48.00
2018-06-28T17:40:36.018Z,47.60
2018-06-28T17:43:05.989Z,47.90
2018-06-28T17:45:36.251Z,47.90
2018-06-28T17:48:06.619Z,47.80
2018-06-28T17:50:37.022Z,47.20
2018-06-28T17:53:07.325Z,47.80
2018-06-28T17:55:37.277Z,46.90
2018-06-28T17:58:07.226Z,47.40
2018-06-28T18:00:37.119Z,47.20
2018-06-28T18:03:07.284Z,47.60
2018-06-28T18:05:37.209Z,47.70
2018-06-28T18:08:07.187Z,48.00
2018-06-28T18:10:37.227Z,47.90
2018-06-28T18:13:07.242Z,48.50
2018-06-28T18:15:37.213Z,47.90
2018-06-28T18:18:07.277Z,49.10
2018-06-28T18:20:37.232Z,48.50
2018-06-28T18:23:07.253Z,49.70
2018-06-28T18:25:37.264Z,49.10
2018-06-28T18:28:07.229Z,49.00
2018-06-28T18:30:37.221Z,49.40
2018-06-28T18:33:07.240Z,49.40
2018-06-28T18:35:37.164Z,48.30
2018-06-28T18:38:07.170Z,48.30
2018-06-28T18:40:37.102Z,48.10
2018-06-28T18:43:07.052Z,48.20
2018-06-28T18:45:36.961Z,49.00
2018-06-28T18:48:07.060Z,48.50
2018-06-28T18:50:37.148Z,48.60
2018-06-28T18:53:07.040Z,49.60
2018-06-28T18:55:37.018Z,49.60
2018-06-28T18:58:07.212Z,50.20
2018-06-28T19:00:37.145Z,49.60
2018-06-28T19:03:07.094Z,50.20
2018-06-28T19:05:37.039Z,50.60
2018-06-28T19:08:07.026Z,50.70
2018-06-28T19:10:42.041Z,51.10
2018-06-28T19:13:11.978Z,50.80
2018-06-28T19:15:47.142Z,50.90
2018-06-28T19:18:17.085Z,51.10
2018-06-28T19:20:52.363Z,51.30
2018-06-28T19:23:27.404Z,51.90
2018-06-28T19:25:57.350Z,50.90
2018-06-28T19:28:27.378Z,52.00
2018-06-28T19:31:02.463Z,51.60
2018-06-28T19:33:33.390Z,51.90
2018-06-28T19:36:03.369Z,51.70
2018-06-28T19:41:13.502Z,52.30
2018-06-28T19:43:43.470Z,52.60
2018-06-28T19:46:13.508Z,52.90
2018-06-28T19:48:43.679Z,53.00
2018-06-28T19:51:18.811Z,53.30
2018-06-28T19:53:48.776Z,53.80
2018-06-28T19:56:18.778Z,53.60
2018-06-28T19:58:48.734Z,53.90
2018-06-28T20:01:23.980Z,54.00
2018-06-28T20:03:59.161Z,54.20
2018-06-28T20:06:29.159Z,54.60
2018-06-28T20:08:59.177Z,54.70
2018-06-28T20:11:29.176Z,54.80
2018-06-28T20:14:04.332Z,54.70
2018-06-28T20:16:39.535Z,54.80
2018-06-28T20:19:14.685Z,54.60
2018-06-28T20:21:44.753Z,54.90
2018-06-28T20:24:14.850Z,55.20
2018-06-28T20:26:49.866Z,55.40
2018-06-28T20:29:25.066Z,55.50
2018-06-28T20:32:00.145Z,55.80
2018-06-28T20:34:30.170Z,56.60
2018-06-28T20:37:00.144Z,57.00
2018-06-28T20:39:30.198Z,57.50
2018-06-28T20:42:00.376Z,58.10
2018-06-28T20:44:30.299Z,58.20
2018-06-28T20:47:00.189Z,57.80
2018-06-28T20:49:30.208Z,57.70
2018-06-28T20:52:00.210Z,57.80
2018-06-28T20:54:30.185Z,57.80
2018-06-28T20:57:00.193Z,57.80
2018-06-28T20:59:30.150Z,57.90
2018-06-28T21:02:00.156Z,57.90
2018-06-28T21:04:30.118Z,58.10
2018-06-28T21:07:00.095Z,58.30
2018-06-28T21:09:30.018Z,59.00
2018-06-28T21:12:00.009Z,58.50
2018-06-28T21:14:29.981Z,58.90
2018-06-28T21:16:59.958Z,59.30
2018-06-28T21:19:30.008Z,59.10
2018-06-28T21:22:06.058Z,59.70
2018-06-28T21:24:42.125Z,60.00
2018-06-28T21:27:18.179Z,59.60
2018-06-28T21:29:54.474Z,60.60
2018-06-28T21:32:30.614Z,60.00
2018-06-28T21:35:06.906Z,60.50
2018-06-28T21:37:43.229Z,60.70
2018-06-28T21:40:19.311Z,61.00
2018-06-28T21:42:55.555Z,61.40
2018-06-28T21:45:31.741Z,61.50
2018-06-28T21:48:07.934Z,62.00
2018-06-28T21:50:44.014Z,62.80
2018-06-28T21:53:20.078Z,63.20
2018-06-28T21:55:56.568Z,64.20
2018-06-28T21:58:33.583Z,64.50
2018-06-28T22:01:09.714Z,64.60
2018-06-28T22:03:45.950Z,64.80
2018-06-28T22:06:21.983Z,65.00
2018-06-28T22:08:58.229Z,65.40
2018-06-28T22:11:34.607Z,65.70
2018-06-28T22:14:10.697Z,66.30
2018-06-28T22:16:46.990Z,65.80
2018-06-28T22:19:23.069Z,65.60
2018-06-28T22:21:59.382Z,65.90
2018-06-28T22:24:35.672Z,65.70
2018-06-28T22:27:11.793Z,65.70
2018-06-28T22:32:23.822Z,67.30
2018-06-28T22:35:00.052Z,65.50
2018-06-28T22:37:36.245Z,65.40
2018-06-28T22:40:12.409Z,66.60
2018-06-28T22:42:48.512Z,66.50
2018-06-28T22:45:24.791Z,67.30
2018-06-28T22:48:01.120Z,67.00
2018-06-28T22:50:37.426Z,67.00
2018-06-28T22:53:13.674Z,66.20
2018-06-28T22:55:49.720Z,66.80
2018-06-28T22:58:25.992Z,66.90
2018-06-28T23:01:02.222Z,67.00
2018-06-28T23:03:38.773Z,67.00
2018-06-28T23:06:14.945Z,67.80
2018-06-28T23:08:51.257Z,66.80
2018-06-28T23:11:27.493Z,66.60
2018-06-28T23:14:03.746Z,67.20
2018-06-28T23:16:39.895Z,67.50
2018-06-28T23:19:16.113Z,67.80
2018-06-28T23:21:52.165Z,67.70
2018-06-28T23:24:28.365Z,68.80
2018-06-28T23:27:04.525Z,68.10
2018-06-28T23:29:40.940Z,68.40
2018-06-28T23:32:17.169Z,68.20
2018-06-28T23:34:53.376Z,68.50
2018-06-28T23:37:29.562Z,68.70
2018-06-28T23:40:06.548Z,69.40
2018-06-28T23:42:42.798Z,68.50
2018-06-28T23:45:18.997Z,69.70
2018-06-28T23:47:55.262Z,69.20
2018-06-28T23:50:31.576Z,68.20
2018-06-28T23:53:08.116Z,69.50
2018-06-28T23:55:44.361Z,68.20
2018-06-28T23:58:20.637Z,69.00
